Time;durP1;ratioP1;P1;durP2;ratioP2;P2;SDS_P1;SDS_P2;PMS_P1;PMS_P2;Temp;Humidity;BMP_temperature;BMP_pressure;BME280_temperature;BME280_humidity;BME280_pressure;Samples;Min_cycle;Max_cycle;Signal;HPM_P1;HPM_P2
2022/12/24 00:02:19;;;;;;;10.32;3.97;;;;;;;-148.88;100.00;75155.72;4995393;28;20030;-77
2022/12/24 00:04:45;;;;;;;12.07;4.00;;;;;;;-148.88;100.00;75163.84;4995233;28;20038;-77
2022/12/24 00:07:10;;;;;;;9.23;3.60;;;;;;;-148.88;100.00;75167.91;4995297;28;20399;-77
2022/12/24 00:09:35;;;;;;;19.90;4.22;;;;;;;-148.88;100.00;75159.78;4993977;28;20055;-77
2022/12/24 00:12:01;;;;;;;12.18;3.67;;;;;;;-148.88;100.00;75180.09;4995312;28;20492;-76
2022/12/24 00:14:26;;;;;;;16.60;4.32;;;;;;;-148.88;100.00;75180.09;4994940;28;20022;-77
2022/12/24 00:16:51;;;;;;;11.32;4.40;;;;;;;-148.88;100.00;75180.09;4995171;28;20037;-76
2022/12/24 00:19:16;;;;;;;10.35;3.88;;;;;;;-148.88;100.00;75171.97;4994339;28;20022;-76
2022/12/24 00:21:42;;;;;;;13.57;4.10;;;;;;;-148.88;100.00;75190.25;4995160;28;20029;-76
2022/12/24 00:24:07;;;;;;;10.02;3.70;;;;;;;-148.88;100.00;75174.00;4993755;28;20449;-76
2022/12/24 00:26:33;;;;;;;14.02;3.72;;;;;;;-148.88;100.00;75186.19;4994910;28;20034;-76
2022/12/24 00:28:58;;;;;;;10.55;3.63;;;;;;;-148.88;100.00;75178.06;4993627;28;20033;-77
2022/12/24 00:31:24;;;;;;;12.52;3.95;;;;;;;-148.88;100.00;75186.19;4994966;28;20038;-77
2022/12/24 00:33:49;;;;;;;12.48;4.10;;;;;;;-148.88;100.00;75192.28;4994814;28;20033;-76
2022/12/24 00:36:16;;;;;;;10.18;3.85;;;;;;;-148.88;100.00;75190.25;4995060;28;20023;-77
2022/12/24 00:38:42;;;;;;;12.63;3.45;;;;;;;-148.88;100.00;75200.41;4994881;28;20034;-76
2022/12/24 00:41:23;;;;;;;12.02;3.20;;;;;;;-148.88;100.00;75204.47;4993469;28;20401;-77
2022/12/24 00:43:50;;;;;;;12.60;3.45;;;;;;;-148.88;100.00;75218.69;4993370;28;20050;-77
2022/12/24 00:46:15;;;;;;;12.52;3.20;;;;;;;-148.88;100.00;75212.59;4994525;28;20030;-76
2022/12/24 00:48:43;;;;;;;10.02;3.00;;;;;;;-148.88;100.00;75226.81;4995013;28;20030;-76
2022/12/24 00:51:08;;;;;;;14.88;4.45;;;;;;;-148.88;100.00;75232.91;4994441;28;20160;-76
2022/12/24 00:53:33;;;;;;;13.57;3.88;;;;;;;-148.88;100.00;75234.94;4994455;28;20101;-76
2022/12/24 00:55:58;;;;;;;17.30;4.68;;;;;;;-148.88;100.00;75245.09;4994530;28;20430;-76
2022/12/24 00:58:24;;;;;;;10.63;3.17;;;;;;;-148.88;100.00;75249.16;4993474;28;20066;-76
2022/12/24 01:00:49;;;;;;;14.18;2.80;;;;;;;-148.88;100.00;75257.28;4994236;28;20076;-76
2022/12/24 01:03:15;;;;;;;10.65;3.42;;;;;;;-148.88;100.00;75241.03;4994187;28;20057;-76
2022/12/24 01:05:40;;;;;;;8.95;3.17;;;;;;;-148.88;100.00;75257.28;4992879;28;20512;-76
2022/12/24 01:08:05;;;;;;;14.48;3.10;;;;;;;-148.88;100.00;75261.34;4994237;28;20116;-77
2022/12/24 01:10:30;;;;;;;12.20;3.33;;;;;;;-148.88;100.00;75263.38;4994332;28;20507;-76
2022/12/24 01:12:56;;;;;;;15.00;3.33;;;;;;;-148.88;100.00;75273.53;4993938;28;20033;-77
2022/12/24 01:15:21;;;;;;;10.50;3.85;;;;;;;-148.88;100.00;75261.34;4993978;28;20041;-76
2022/12/24 01:17:46;;;;;;;11.43;3.95;;;;;;;-148.88;100.00;75265.41;4993862;28;20026;-76
2022/12/24 01:20:14;;;;;;;13.60;3.22;;;;;;;-148.88;100.00;75275.56;4994063;28;20144;-77
2022/12/24 01:22:41;;;;;;;19.50;5.85;;;;;;;-148.88;100.00;75267.44;4993850;28;20022;-76
2022/12/24 01:25:07;;;;;;;14.75;3.35;;;;;;;-148.88;100.00;75275.56;4993660;28;20100;-76
2022/12/24 01:27:33;;;;;;;12.30;3.20;;;;;;;-148.88;100.00;75277.59;4993475;28;20030;-77
2022/12/24 01:29:58;;;;;;;12.20;3.63;;;;;;;-148.88;100.00;75271.50;4993820;28;20034;-76
2022/12/24 01:32:23;;;;;;;8.30;2.58;;;;;;;-148.88;100.00;75285.69;4993748;28;20018;-77
2022/12/24 01:34:48;;;;;;;14.55;4.10;;;;;;;-148.88;100.00;75281.66;4993613;28;20022;-76
2022/12/24 01:37:14;;;;;;;14.48;2.88;;;;;;;-148.88;100.00;75273.53;4993485;28;20166;-77
2022/12/24 01:39:39;;;;;;;9.55;2.45;;;;;;;-148.88;100.00;75283.66;4993707;28;20033;-76
2022/12/24 01:45:35;;;;;;;13.30;2.58;;;;;;;-148.88;100.00;75293.81;4993570;28;20111;-76
2022/12/24 01:48:01;;;;;;;15.25;3.03;;;;;;;-148.88;100.00;75314.13;4993354;28;20033;-77
2022/12/24 01:50:27;;;;;;;12.27;3.28;;;;;;;-148.88;100.00;75310.06;4993457;28;20026;-76
2022/12/24 01:52:53;;;;;;;17.25;3.47;;;;;;;-148.88;100.00;75316.16;4993548;28;20074;-76
2022/12/24 01:55:19;;;;;;;13.40;3.00;;;;;;;-148.88;100.00;75320.22;4993200;28;20018;-76
2022/12/24 01:57:51;;;;;;;18.25;3.70;;;;;;;-148.88;100.00;75330.38;4993224;28;20033;-77
2022/12/24 02:00:16;;;;;;;26.35;4.40;;;;;;;-148.88;100.00;75336.47;4993504;28;20034;-77
2022/12/24 02:02:49;;;;;;;19.92;5.40;;;;;;;-148.88;100.00;75332.41;4993112;28;20396;-76
2022/12/24 02:05:21;;;;;;;11.52;2.95;;;;;;;-148.88;100.00;75366.94;4993389;28;20030;-76
2022/12/24 02:07:47;;;;;;;10.32;2.95;;;;;;;-148.88;100.00;75362.88;4993451;28;20026;-76
2022/12/24 02:10:14;;;;;;;16.95;3.90;;;;;;;-148.88;100.00;75377.09;4993138;28;20146;-76
2022/12/24 02:12:41;;;;;;;17.67;3.97;;;;;;;-148.88;100.00;75375.06;4993203;28;20037;-76
2022/12/24 02:15:08;;;;;;;13.20;3.78;;;;;;;-148.88;100.00;75383.19;4993130;28;20023;-77
2022/12/24 02:17:49;;;;;;;18.20;3.25;;;;;;;-148.88;100.00;75379.13;4993122;28;20030;-76
2022/12/24 02:21:08;;;;;;;18.90;3.72;;;;;;;-148.88;100.00;75379.13;4993087;28;20018;-76
2022/12/24 02:24:01;;;;;;;20.10;3.30;;;;;;;-148.88;100.00;75371.00;4971571;28;20089;-76
2022/12/24 02:26:46;;;;;;;23.40;3.45;;;;;;;-148.88;100.00;75377.09;4993034;28;20113;-76
2022/12/24 02:29:42;;;;;;;15.30;3.53;;;;;;;-148.88;100.00;75371.00;4992051;28;20077;-77
2022/12/24 02:32:17;;;;;;;23.38;3.58;;;;;;;-148.88;100.00;75371.00;4993259;28;20416;-76
2022/12/24 02:35:19;;;;;;;17.15;3.53;;;;;;;-148.88;100.00;75373.03;4993033;28;20054;-77
2022/12/24 02:38:19;;;;;;;14.75;2.88;;;;;;;-148.88;100.00;75379.13;4989204;28;20046;-76
2022/12/24 02:40:59;;;;;;;16.17;4.78;;;;;;;-148.88;100.00;75387.25;4970126;28;20030;-77
2022/12/24 02:43:30;;;;;;;13.40;3.80;;;;;;;-148.88;100.00;75401.47;4995606;28;20201;-76
2022/12/24 02:46:00;;;;;;;19.25;3.63;;;;;;;-148.88;100.00;75399.44;4996623;28;20034;-77
2022/12/24 02:48:28;;;;;;;18.17;3.30;;;;;;;-148.88;100.00;75411.63;4997032;28;20098;-76
2022/12/24 02:50:54;;;;;;;19.63;4.38;;;;;;;-148.88;100.00;75411.63;4996668;28;20081;-76
2022/12/24 02:53:20;;;;;;;25.88;4.43;;;;;;;-148.88;100.00;75409.59;4996662;28;20026;-76
2022/12/24 02:55:58;;;;;;;23.13;3.40;;;;;;;-148.88;100.00;75405.53;4996482;28;20034;-76
2022/12/24 02:58:59;;;;;;;11.35;3.67;;;;;;;-148.88;100.00;75409.59;4996549;28;20022;-77
2022/12/24 03:01:36;;;;;;;17.13;3.58;;;;;;;-148.88;100.00;75407.56;4996748;28;20057;-76
2022/12/24 03:04:15;;;;;;;16.08;3.63;;;;;;;-148.88;100.00;75407.56;4996511;28;20058;-76
2022/12/24 03:07:05;;;;;;;13.88;3.17;;;;;;;-148.88;100.00;75415.69;4996410;28;20073;-77
2022/12/24 03:10:02;;;;;;;24.30;4.50;;;;;;;-148.88;100.00;75427.88;4996601;28;20026;-77
2022/12/24 03:12:46;;;;;;;21.63;3.92;;;;;;;-148.88;100.00;75427.88;4987573;28;20042;-76
2022/12/24 03:15:15;;;;;;;19.58;3.42;;;;;;;-148.88;100.00;75425.84;4996151;28;20030;-76
2022/12/24 03:17:44;;;;;;;19.15;3.33;;;;;;;-148.88;100.00;75429.91;4996167;28;20485;-76
2022/12/24 03:20:14;;;;;;;20.15;3.47;;;;;;;-148.88;100.00;75425.84;4996164;28;20037;-77
2022/12/24 03:22:39;;;;;;;15.73;4.03;;;;;;;-148.88;100.00;75438.03;4996274;28;20034;-76
2022/12/24 03:25:05;;;;;;;17.83;3.45;;;;;;;-148.88;100.00;75440.06;4995945;28;20042;-77
2022/12/24 03:27:33;;;;;;;20.15;4.18;;;;;;;-148.88;100.00;75444.13;4995991;28;20037;-77
2022/12/24 03:44:30;;;;;;;21.27;6.93;;;;;;;-148.88;100.00;75486.78;5097135;27;1196987;-75
2022/12/24 03:46:55;;;;;;;30.63;6.75;;;;;;;-148.88;100.00;75513.19;5112305;28;20299;-75
2022/12/24 03:49:20;;;;;;;19.42;4.03;;;;;;;-148.88;100.00;75492.88;5113123;28;20432;-75
2022/12/24 03:51:46;;;;;;;19.80;4.18;;;;;;;-148.88;100.00;75505.06;5130754;28;20015;-75
2022/12/24 03:54:11;;;;;;;17.33;3.50;;;;;;;-148.88;100.00;75488.81;5130559;27;20526;-75
2022/12/24 03:56:36;;;;;;;24.42;5.80;;;;;;;-148.88;100.00;75494.91;5130662;28;20019;-75
2022/12/24 03:59:01;;;;;;;14.40;3.40;;;;;;;-148.88;100.00;75492.88;5130505;28;20023;-75
2022/12/24 04:01:27;;;;;;;13.10;3.47;;;;;;;-148.88;100.00;75488.81;5130609;28;20027;-75
2022/12/24 04:03:52;;;;;;;17.60;3.90;;;;;;;-148.88;100.00;75496.94;5130338;27;20029;-75
2022/12/24 04:06:17;;;;;;;19.35;3.85;;;;;;;-148.88;100.00;75515.22;5130467;28;20051;-75
2022/12/24 04:08:43;;;;;;;21.55;3.97;;;;;;;-148.88;100.00;75511.16;5130337;28;20030;-75
2022/12/24 04:11:12;;;;;;;19.13;4.18;;;;;;;-148.88;100.00;75513.19;5130508;28;20027;-75
2022/12/24 04:13:37;;;;;;;21.40;4.78;;;;;;;-148.88;100.00;75509.13;5130131;27;20072;-75
2022/12/24 04:16:12;;;;;;;15.25;4.32;;;;;;;-148.88;100.00;75505.06;5130184;28;20436;-75
2022/12/24 04:18:38;;;;;;;22.40;3.95;;;;;;;-148.88;100.00;75515.22;5111685;28;20156;-75
2022/12/24 04:21:05;;;;;;;27.02;6.45;;;;;;;-148.88;100.00;75513.19;5130227;28;20051;-75
2022/12/24 04:23:32;;;;;;;17.85;4.65;;;;;;;-148.88;100.00;75529.44;5111472;28;20024;-75
2022/12/24 04:25:59;;;;;;;23.65;4.55;;;;;;;-148.88;100.00;75523.34;5130023;28;20027;-75
2022/12/24 04:28:25;;;;;;;18.20;5.00;;;;;;;-148.88;100.00;75525.38;5130727;28;20037;-75
2022/12/24 04:30:50;;;;;;;21.25;4.70;;;;;;;-148.88;100.00;75539.59;5135114;28;20016;-75
2022/12/24 04:33:15;;;;;;;17.70;4.18;;;;;;;-148.88;100.00;75543.66;5129895;27;20026;-75
2022/12/24 04:35:41;;;;;;;18.40;4.68;;;;;;;-148.88;100.00;75539.59;5129780;28;20015;-75
2022/12/24 04:38:08;;;;;;;19.67;4.40;;;;;;;-148.88;100.00;75537.56;5129856;28;20027;-75
2022/12/24 04:40:34;;;;;;;22.40;4.78;;;;;;;-148.88;100.00;75549.75;5129735;28;20035;-75
2022/12/24 04:43:00;;;;;;;19.98;4.10;;;;;;;-148.88;100.00;75561.94;5111193;27;20032;-74
2022/12/24 04:45:25;;;;;;;16.80;3.83;;;;;;;-148.88;100.00;75553.81;5116521;27;20049;-75
2022/12/24 04:47:50;;;;;;;16.75;4.05;;;;;;;-148.88;100.00;75566.00;5116069;28;20041;-75
2022/12/24 04:50:16;;;;;;;16.65;4.55;;;;;;;-148.88;100.00;75580.22;5114580;28;20117;-75
2022/12/24 04:52:41;;;;;;;23.48;4.47;;;;;;;-148.88;100.00;75582.22;5115874;28;20387;-75
2022/12/24 04:55:07;;;;;;;19.73;3.83;;;;;;;-148.88;100.00;75594.44;5115845;28;20047;-75
2022/12/24 04:57:34;;;;;;;26.40;5.22;;;;;;;-148.88;100.00;75586.31;5115970;28;20023;-74
2022/12/24 05:00:00;;;;;;;23.67;4.80;;;;;;;-148.88;100.00;75582.22;5115831;28;20528;-75
2022/12/24 05:02:25;;;;;;;33.78;5.88;;;;;;;-148.88;100.00;75590.34;5115751;28;20059;-74
2022/12/24 05:04:50;;;;;;;24.58;5.13;;;;;;;-148.88;100.00;75594.44;5115826;27;20095;-74
2022/12/24 05:07:16;;;;;;;25.42;4.90;;;;;;;-148.88;100.00;75592.38;5115700;28;20502;-74
2022/12/24 05:09:41;;;;;;;23.15;4.88;;;;;;;-148.88;100.00;75590.34;5114201;28;20107;-75
2022/12/24 05:12:06;;;;;;;26.02;4.60;;;;;;;-148.88;100.00;75588.34;5115535;27;20022;-75
2022/12/24 05:14:32;;;;;;;22.60;4.40;;;;;;;-148.88;100.00;75586.31;5115279;28;20039;-74
2022/12/24 05:16:57;;;;;;;19.55;4.05;;;;;;;-148.88;100.00;75580.22;5114567;28;20395;-74
2022/12/24 05:19:24;;;;;;;30.63;5.65;;;;;;;-148.88;100.00;75590.34;5115324;28;20368;-74
2022/12/24 05:27:19;;;;;;;;;;;;;;;-148.88;100.00;75594.44;5116152;28;20035;-74
2022/12/24 05:29:44;;;;;;;26.73;4.88;;;;;;;-148.88;100.00;75600.50;5115237;28;19911;-74
2022/12/24 05:32:09;;;;;;;21.88;3.47;;;;;;;-148.88;100.00;75594.44;5115209;28;20028;-75
2022/12/24 05:34:35;;;;;;;21.13;3.97;;;;;;;-148.88;100.00;75606.59;5115088;28;20344;-75
2022/12/24 05:37:00;;;;;;;24.45;4.93;;;;;;;-148.88;100.00;75610.66;5115231;28;20023;-74
2022/12/24 05:39:26;;;;;;;19.30;4.65;;;;;;;-148.88;100.00;75620.81;5113602;28;20030;-74
2022/12/24 05:41:51;;;;;;;26.20;6.03;;;;;;;-148.88;100.00;75618.78;5114967;28;20026;-74
2022/12/24 05:44:16;;;;;;;23.67;5.97;;;;;;;-148.88;100.00;75614.72;5117169;28;20118;-74
2022/12/24 05:46:42;;;;;;;15.00;3.88;;;;;;;-148.88;100.00;75626.91;5096740;28;20023;-74
2022/12/24 05:49:08;;;;;;;17.42;4.63;;;;;;;-148.88;100.00;75620.81;5096580;28;20027;-74
2022/12/24 05:51:34;;;;;;;18.67;5.13;;;;;;;-148.88;100.00;75647.22;5114775;28;20024;-75
2022/12/24 05:53:59;;;;;;;21.50;3.78;;;;;;;-148.88;100.00;75641.13;5114632;28;20386;-74
2022/12/24 05:56:24;;;;;;;17.27;3.78;;;;;;;-148.88;100.00;75639.09;5113563;28;20019;-75
2022/12/24 05:58:52;;;;;;;18.88;3.83;;;;;;;-148.88;100.00;75645.19;5114492;28;20029;-74
2022/12/24 06:01:18;;;;;;;25.08;4.95;;;;;;;-148.88;100.00;75647.22;5096174;28;20020;-74
2022/12/24 06:03:43;;;;;;;22.70;4.95;;;;;;;-148.88;100.00;75641.13;5114381;28;20023;-74
2022/12/24 06:06:11;;;;;;;20.88;4.55;;;;;;;-148.88;100.00;75647.22;5114671;28;20030;-74
2022/12/24 06:08:38;;;;;;;25.30;6.93;;;;;;;-148.88;100.00;75651.28;5114365;28;20019;-74
2022/12/24 06:11:08;;;;;;;30.60;7.15;;;;;;;-148.88;100.00;75659.41;5114775;28;20432;-74
2022/12/24 06:13:34;;;;;;;17.52;3.85;;;;;;;-148.88;100.00;75651.28;5095864;28;20432;-74
2022/12/24 06:16:00;;;;;;;17.92;4.05;;;;;;;-148.88;100.00;75661.44;5114173;28;20024;-74
2022/12/24 06:18:28;;;;;;;22.63;4.97;;;;;;;-148.88;100.00;75677.69;5095876;28;20432;-74
2022/12/24 06:20:54;;;;;;;22.80;4.65;;;;;;;-148.88;100.00;75683.78;5114334;28;20020;-75
2022/12/24 06:23:20;;;;;;;17.88;4.20;;;;;;;-148.88;100.00;75693.94;5095677;28;20053;-74
2022/12/24 06:25:47;;;;;;;16.50;4.38;;;;;;;-148.88;100.00;75687.84;5114065;28;20538;-74
2022/12/24 06:28:12;;;;;;;21.50;5.07;;;;;;;-148.88;100.00;75687.84;5113982;28;20023;-74
2022/12/24 06:30:38;;;;;;;19.17;4.65;;;;;;;-148.88;100.00;75704.09;5114059;28;20023;-76
2022/12/24 06:33:03;;;;;;;27.58;5.50;;;;;;;-148.88;100.00;75702.06;5095726;28;20437;-75
2022/12/24 06:35:30;;;;;;;23.08;4.93;;;;;;;-148.88;100.00;75691.91;5113985;28;20023;-75
2022/12/24 06:37:55;;;;;;;24.58;5.35;;;;;;;-148.88;100.00;75704.09;5095592;28;20024;-75
2022/12/24 06:40:21;;;;;;;26.27;5.45;;;;;;;-148.88;100.00;75698.00;5114130;28;20391;-75
2022/12/24 06:42:46;;;;;;;27.02;5.18;;;;;;;-148.88;100.00;75712.22;5113658;28;20076;-74
2022/12/24 06:45:11;;;;;;;24.20;5.57;;;;;;;-148.88;100.00;75700.03;5113730;28;20411;-76
2022/12/24 06:47:36;;;;;;;20.63;5.35;;;;;;;-148.88;100.00;75689.88;5095287;28;20076;-75
2022/12/24 06:50:02;;;;;;;19.00;4.43;;;;;;;-148.88;100.00;75704.09;5114032;28;20016;-74
2022/12/24 06:52:27;;;;;;;29.48;6.55;;;;;;;-148.88;100.00;75712.22;5113441;28;20016;-75
2022/12/24 06:54:52;;;;;;;24.08;4.75;;;;;;;-148.88;100.00;75704.09;5113614;28;20474;-75
2022/12/24 06:57:18;;;;;;;22.60;6.00;;;;;;;-148.88;100.00;75706.13;5096863;28;20022;-75
2022/12/24 06:59:43;;;;;;;25.10;5.55;;;;;;;-148.88;100.00;75708.16;5113692;28;20042;-75
2022/12/24 07:02:09;;;;;;;27.92;6.18;;;;;;;-148.88;100.00;75716.28;5095151;28;20028;-75
2022/12/24 07:04:34;;;;;;;27.10;5.82;;;;;;;-148.88;100.00;75720.34;5113255;28;20020;-75
2022/12/24 07:06:59;;;;;;;25.58;5.60;;;;;;;-148.88;100.00;75724.41;5094837;28;20015;-76
2022/12/24 07:09:24;;;;;;;28.73;5.75;;;;;;;-148.88;100.00;75724.41;5094986;28;20077;-75
2022/12/24 07:11:50;;;;;;;35.67;8.55;;;;;;;-148.88;100.00;75740.66;5113298;28;20501;-75
2022/12/24 07:14:15;;;;;;;26.75;6.20;;;;;;;-148.88;100.00;75732.53;5113170;28;20027;-75
2022/12/24 07:16:40;;;;;;;27.73;6.28;;;;;;;-148.88;100.00;75732.53;5094814;28;20478;-75
2022/12/24 07:19:05;;;;;;;28.88;7.35;;;;;;;-148.88;100.00;75744.72;5113455;28;20077;-76
2022/12/24 07:21:31;;;;;;;38.20;6.45;;;;;;;-148.88;100.00;75746.75;5113473;28;20015;-76
2022/12/24 07:23:56;;;;;;;28.60;6.45;;;;;;;-148.88;100.00;75748.78;5113030;28;20019;-75
2022/12/24 07:26:21;;;;;;;25.02;6.43;;;;;;;-148.88;100.00;75750.81;5113142;28;20072;-75
2022/12/24 07:28:47;;;;;;;28.63;6.50;;;;;;;-148.88;100.00;75746.75;5113173;28;20026;-75
2022/12/24 07:31:12;;;;;;;30.98;7.10;;;;;;;-148.88;100.00;75740.66;5113096;28;20031;-75
2022/12/24 07:33:37;;;;;;;26.15;7.85;;;;;;;-148.88;100.00;75752.84;5113327;28;20024;-76
2022/12/24 07:36:05;;;;;;;36.08;7.80;;;;;;;-148.88;100.00;75765.03;5113188;28;20019;-75
2022/12/24 07:38:31;;;;;;;30.08;7.45;;;;;;;-148.88;100.00;75752.84;5095061;28;20118;-76
2022/12/24 07:40:57;;;;;;;18.58;6.43;;;;;;;-148.88;100.00;75769.09;5112931;28;20129;-76
2022/12/24 07:43:24;;;;;;;29.70;7.72;;;;;;;-148.88;100.00;75779.25;5097731;28;20172;-76
2022/12/24 07:45:49;;;;;;;25.95;6.88;;;;;;;-148.88;100.00;75767.06;5112924;28;20028;-76
2022/12/24 07:48:15;;;;;;;24.35;6.88;;;;;;;-148.88;100.00;75765.03;5112929;28;20023;-76
2022/12/24 07:50:41;;;;;;;27.73;7.15;;;;;;;-148.88;100.00;75771.13;5112861;28;20027;-76
2022/12/24 07:53:06;;;;;;;30.98;7.22;;;;;;;-148.88;100.00;75771.13;5111497;28;20427;-76
2022/12/24 07:55:31;;;;;;;27.08;7.10;;;;;;;-148.88;100.00;75767.06;5113140;28;20030;-76
2022/12/24 07:57:57;;;;;;;22.98;7.45;;;;;;;-148.88;100.00;75781.28;5113043;28;20134;-76
2022/12/24 08:00:22;;;;;;;39.10;7.97;;;;;;;-148.88;100.00;75793.47;5113069;28;20102;-76
2022/12/24 08:02:47;;;;;;;24.52;7.13;;;;;;;-148.88;100.00;75793.47;5113327;28;20031;-76
2022/12/24 08:05:12;;;;;;;16.17;6.40;;;;;;;-148.88;100.00;75785.34;5111474;28;20539;-76
2022/12/24 08:07:38;;;;;;;30.77;9.18;;;;;;;-148.88;100.00;75777.22;5111468;28;20027;-76
2022/12/24 08:10:03;;;;;;;27.30;6.72;;;;;;;-148.88;100.00;75781.28;5114271;28;20030;-75
2022/12/24 08:12:29;;;;;;;24.33;6.68;;;;;;;-148.88;100.00;75785.34;5112907;28;20106;-76
2022/12/24 08:14:54;;;;;;;28.75;7.18;;;;;;;-148.88;100.00;75785.34;5111432;28;20433;-76
2022/12/24 08:17:19;;;;;;;30.15;7.50;;;;;;;-148.88;100.00;75779.25;5112637;28;20062;-76
2022/12/24 08:19:45;;;;;;;31.48;7.38;;;;;;;-148.88;100.00;75781.28;5113289;28;20019;-76
2022/12/24 08:22:10;;;;;;;30.75;7.32;;;;;;;-148.88;100.00;75777.22;5116532;28;20380;-76
2022/12/24 08:24:36;;;;;;;27.58;6.95;;;;;;;-148.88;100.00;75773.16;5114838;28;20019;-76
2022/12/24 08:27:01;;;;;;;32.00;7.63;;;;;;;-148.88;100.00;75789.41;5115065;28;20035;-76
2022/12/24 08:29:27;;;;;;;26.33;6.72;;;;;;;-148.88;100.00;75781.28;5116369;27;20066;-76
2022/12/24 08:31:52;;;;;;;25.60;7.25;;;;;;;-148.88;100.00;75783.31;5116342;28;20076;-76
2022/12/24 08:34:17;;;;;;;31.95;8.48;;;;;;;-148.88;100.00;75787.38;5116285;28;20042;-76
2022/12/24 08:36:43;;;;;;;24.30;7.55;;;;;;;-148.88;100.00;75789.41;5115232;28;20023;-77
2022/12/24 08:39:08;;;;;;;24.83;7.38;;;;;;;-148.88;100.00;75787.38;5116118;28;20023;-77
2022/12/24 08:41:33;;;;;;;31.23;8.82;;;;;;;-148.88;100.00;75785.34;5116405;28;20031;-77
2022/12/24 08:43:59;;;;;;;24.73;6.95;;;;;;;-148.88;100.00;75791.44;5116594;28;20031;-77
2022/12/24 08:46:25;;;;;;;29.55;8.23;;;;;;;-148.88;100.00;75793.47;5116288;28;20510;-76
2022/12/24 08:48:50;;;;;;;28.98;8.25;;;;;;;-148.88;100.00;75793.47;5116540;28;20023;-77
2022/12/24 08:51:17;;;;;;;26.60;6.63;;;;;;;-148.88;100.00;75803.63;5100191;28;20065;-78
2022/12/24 08:53:45;;;;;;;19.02;5.90;;;;;;;-148.88;100.00;75805.66;5119075;28;20039;-79
2022/12/24 08:56:11;;;;;;;21.13;6.38;;;;;;;-148.88;100.00;75805.66;5116603;28;20094;-76
2022/12/24 08:58:37;;;;;;;27.55;6.95;;;;;;;-148.88;100.00;75803.63;5098394;28;20104;-77
2022/12/24 09:01:14;;;;;;;25.35;6.85;;;;;;;-148.88;100.00;75815.81;5097820;28;20015;-76
2022/12/24 09:03:39;;;;;;;17.45;5.38;;;;;;;-148.88;100.00;75817.84;5115460;28;20434;-76
2022/12/24 09:06:06;;;;;;;21.75;6.43;;;;;;;-148.88;100.00;75825.97;5115871;28;20813;-76
2022/12/24 09:08:32;;;;;;;23.80;6.22;;;;;;;-148.88;100.00;75813.78;5115465;28;20439;-76
2022/12/24 09:11:15;;;;;;;24.05;6.28;;;;;;;-148.88;100.00;75813.78;5115333;28;20474;-76
2022/12/24 09:13:41;;;;;;;20.20;5.78;;;;;;;-148.88;100.00;75801.59;5115574;28;20016;-76
2022/12/24 09:16:07;;;;;;;21.13;6.80;;;;;;;-148.88;100.00;75811.75;5115461;28;20034;-76
2022/12/24 09:18:32;;;;;;;26.33;10.02;;;;;;;-148.88;100.00;75813.78;5096918;28;20487;-77
2022/12/24 09:21:03;;;;;;;25.25;6.55;;;;;;;-148.88;100.00;75809.72;5115640;28;20043;-77
2022/12/24 09:23:30;;;;;;;21.65;6.70;;;;;;;-148.88;100.00;75809.72;5115304;28;20463;-76
2022/12/24 09:25:55;;;;;;;20.80;6.20;;;;;;;-148.88;100.00;75821.91;5115027;28;20055;-76
2022/12/24 09:28:21;;;;;;;24.15;9.63;;;;;;;-148.88;100.00;75828.00;5114903;28;20479;-76
2022/12/24 09:31:00;;;;;;;21.00;9.02;;;;;;;-148.88;100.00;75809.72;5116298;28;20031;-77
2022/12/24 09:33:31;;;;;;;18.75;5.47;;;;;;;-148.88;100.00;75834.09;5114609;28;20046;-76
2022/12/24 09:35:57;;;;;;;20.23;5.63;;;;;;;-148.88;100.00;75842.22;5096363;28;20072;-76
2022/12/24 09:38:23;;;;;;;20.67;5.68;;;;;;;-148.88;100.00;75834.09;5096276;28;20567;-76
2022/12/24 09:40:50;;;;;;;23.58;6.30;;;;;;;-148.88;100.00;75838.16;5114450;28;20023;-76
2022/12/24 09:43:18;;;;;;;19.48;6.05;;;;;;;-148.88;100.00;75846.28;5114317;28;20031;-77
2022/12/24 09:46:05;;;;;;;24.73;6.50;;;;;;;-148.88;100.00;75856.44;5096616;28;20398;-77
2022/12/24 09:48:34;;;;;;;25.35;9.65;;;;;;;-148.88;100.00;75846.28;5097737;28;20023;-76
2022/12/24 09:51:07;;;;;;;20.20;5.72;;;;;;;-148.88;100.00;75840.19;5114939;28;20504;-77
2022/12/24 09:53:42;;;;;;;17.60;4.57;;;;;;;-148.88;100.00;75858.47;5114395;28;20106;-77
2022/12/24 09:56:16;;;;;;;19.52;5.13;;;;;;;-148.88;100.00;75838.16;5096574;28;20039;-77
2022/12/24 09:58:48;;;;;;;11.55;4.55;;;;;;;-148.88;100.00;75856.44;5114266;28;20363;-76
2022/12/24 10:01:16;;;;;;;21.85;6.50;;;;;;;-148.88;100.00;75846.28;5114046;28;20020;-76
2022/12/24 10:03:42;;;;;;;16.95;5.10;;;;;;;-148.88;100.00;75842.22;5113989;28;20019;-76
2022/12/24 10:06:10;;;;;;;14.48;5.88;;;;;;;-148.88;100.00;75834.09;5095692;28;20019;-77
2022/12/24 10:08:49;;;;;;;16.55;5.90;;;;;;;-148.88;100.00;75850.34;5116148;28;20031;-76
2022/12/24 10:11:28;;;;;;;23.77;6.47;;;;;;;-148.88;100.00;75834.09;5114901;28;20149;-77
2022/12/24 10:14:07;;;;;;;19.23;6.05;;;;;;;-148.88;100.00;75834.09;5095918;28;20030;-77
2022/12/24 10:16:47;;;;;;;22.35;6.40;;;;;;;-148.88;100.00;75842.22;5096661;28;20023;-78
2022/12/24 10:19:38;;;;;;;19.73;7.22;;;;;;;-148.88;100.00;75842.22;5114934;28;20148;-77
2022/12/24 10:22:19;;;;;;;16.05;5.05;;;;;;;-148.88;100.00;75821.91;5113483;28;20103;-76
2022/12/24 10:25:08;;;;;;;24.77;6.55;;;;;;;-148.88;100.00;75821.91;5113603;28;20376;-77
2022/12/24 10:27:39;;;;;;;26.55;6.13;;;;;;;-148.88;100.00;75809.72;5113764;28;20051;-75
2022/12/24 10:30:21;;;;;;;34.05;11.25;;;;;;;-148.88;100.00;75819.88;5095793;28;20019;-77
2022/12/24 10:32:49;;;;;;;23.10;6.55;;;;;;;-148.88;100.00;75817.84;5095248;28;20031;-75
2022/12/24 10:35:18;;;;;;;22.48;6.40;;;;;;;-148.88;100.00;75813.78;5096115;28;20118;-75
2022/12/24 10:37:46;;;;;;;25.83;6.57;;;;;;;-148.88;100.00;75817.84;5095046;28;20068;-76
2022/12/24 10:40:34;;;;;;;35.13;7.10;;;;;;;-148.88;100.00;75813.78;5113396;28;20023;-75
2022/12/24 10:43:00;;;;;;;33.78;9.60;;;;;;;-148.88;100.00;75815.81;5112838;28;20036;-76
2022/12/24 10:45:35;;;;;;;28.02;6.72;;;;;;;-148.88;100.00;75809.72;5113790;28;20403;-77
2022/12/24 10:48:06;;;;;;;28.73;7.68;;;;;;;-148.88;100.00;75805.66;5113697;28;20026;-76
2022/12/24 10:50:38;;;;;;;22.38;6.82;;;;;;;-148.88;100.00;75797.53;5095386;28;20492;-75
2022/12/24 10:53:16;;;;;;;24.23;7.35;;;;;;;-148.88;100.00;75785.34;5113813;28;20019;-75
2022/12/24 10:55:41;;;;;;;22.13;6.53;;;;;;;-148.88;100.00;75777.22;5113538;28;20474;-75
2022/12/24 10:58:16;;;;;;;24.65;7.32;;;;;;;-148.88;100.00;75756.91;5095410;28;20031;-75
2022/12/24 11:00:47;;;;;;;22.10;5.57;;;;;;;-148.88;100.00;75756.91;5113504;28;20051;-75
2022/12/24 11:03:33;;;;;;;26.73;5.30;;;;;;;-148.88;100.00;75765.03;5095022;28;20515;-75
2022/12/24 11:06:02;;;;;;;19.52;5.97;;;;;;;-148.88;100.00;75771.13;5113450;28;20509;-75
2022/12/24 11:08:27;;;;;;;21.58;5.68;;;;;;;-148.88;100.00;75771.13;5095087;28;20543;-75
2022/12/24 11:10:56;;;;;;;23.73;6.18;;;;;;;-148.88;100.00;75785.34;5095320;28;20024;-75
2022/12/24 11:13:28;;;;;;;24.98;6.22;;;;;;;-148.88;100.00;75781.28;5113335;28;20012;-76
2022/12/24 11:16:05;;;;;;;22.60;8.82;;;;;;;-148.88;100.00;75785.34;5113494;28;20395;-77
2022/12/24 11:18:33;;;;;;;29.48;5.50;;;;;;;-148.88;100.00;75795.50;5113631;28;20081;-76
2022/12/24 11:20:59;;;;;;;23.02;6.38;;;;;;;-148.88;100.00;75791.44;5113509;28;20035;-76
2022/12/24 11:23:26;;;;;;;21.52;8.25;;;;;;;-148.88;100.00;75803.63;5094689;28;20107;-76
2022/12/24 11:25:52;;;;;;;28.98;9.90;;;;;;;-148.88;100.00;75813.78;5094902;28;20151;-75
2022/12/24 11:28:22;;;;;;;28.92;8.77;;;;;;;-148.88;100.00;75803.63;5094864;28;20160;-76
2022/12/24 11:31:17;;;;;;;19.30;4.82;;;;;;;-148.88;100.00;75809.72;5113352;28;20015;-76
2022/12/24 11:33:51;;;;;;;23.52;5.45;;;;;;;-148.88;100.00;75799.56;5094775;28;20059;-75